createdAt,value
2019-04-22T00:02:10.871Z,16.30
2019-04-22T00:04:50.902Z,16.30
2019-04-22T00:07:28.638Z,16.30
2019-04-22T00:10:09.644Z,16.30
2019-04-22T00:12:41.850Z,16.20
2019-04-22T00:15:03.782Z,16.20
2019-04-22T00:17:50.737Z,16.10
2019-04-22T00:20:08.718Z,16.10
2019-04-22T00:22:38.634Z,16.10
2019-04-22T00:25:18.068Z,16.10
2019-04-22T00:27:51.814Z,16.10
2019-04-22T00:30:18.106Z,16.10
2019-04-22T00:33:07.931Z,16.00
2019-04-22T00:35:41.969Z,16.00
2019-04-22T00:38:17.257Z,16.00
2019-04-22T00:40:45.044Z,16.00
2019-04-22T00:43:16.493Z,16.00
2019-04-22T00:45:44.840Z,15.90
2019-04-22T00:48:20.685Z,15.90
2019-04-22T00:53:31.307Z,15.80
2019-04-22T00:56:13.810Z,15.80
2019-04-22T00:58:42.616Z,15.80
2019-04-22T01:01:17.418Z,15.80
2019-04-22T01:03:51.081Z,15.80
2019-04-22T01:06:16.000Z,15.80
2019-04-22T01:08:53.097Z,15.70
2019-04-22T01:11:24.534Z,15.80
2019-04-22T01:13:50.441Z,15.70
2019-04-22T01:16:26.346Z,15.70
2019-04-22T01:18:49.146Z,15.70
2019-04-22T01:21:28.877Z,15.70
2019-04-22T01:23:52.216Z,15.60
2019-04-22T01:26:25.430Z,15.60
2019-04-22T01:28:53.553Z,15.60
2019-04-22T01:31:19.706Z,15.60
2019-04-22T01:33:58.600Z,15.60
2019-04-22T01:36:35.381Z,15.50
2019-04-22T01:39:13.796Z,15.60
2019-04-22T01:41:48.876Z,15.50
2019-04-22T01:46:51.657Z,15.50
2019-04-22T01:49:17.401Z,15.50
2019-04-22T01:51:58.659Z,15.50
2019-04-22T01:54:22.105Z,15.40
2019-04-22T01:59:15.668Z,15.40
2019-04-22T02:04:32.469Z,15.30
2019-04-22T02:06:57.769Z,15.30
2019-04-22T02:09:31.605Z,15.20
2019-04-22T02:12:00.152Z,15.20
2019-04-22T02:14:34.094Z,15.20
2019-04-22T02:17:04.695Z,15.10
2019-04-22T02:21:59.620Z,15.10
2019-04-22T02:24:39.960Z,15.10
2019-04-22T02:27:13.972Z,15.00
2019-04-22T02:32:28.048Z,15.00
2019-04-22T02:34:50.899Z,14.90
2019-04-22T02:39:52.838Z,14.90
2019-04-22T02:42:23.480Z,14.70
2019-04-22T02:47:20.770Z,14.50
2019-04-22T02:49:53.482Z,14.40
2019-04-22T02:52:26.061Z,14.40
2019-04-22T02:57:35.309Z,14.30
2019-04-22T03:05:12.957Z,14.30
2019-04-22T03:07:31.903Z,14.30
2019-04-22T03:10:16.061Z,14.30
2019-04-22T03:12:28.809Z,14.30
2019-04-22T03:15:05.971Z,14.30
2019-04-22T03:17:41.364Z,14.40
2019-04-22T03:20:11.050Z,14.40
2019-04-22T03:22:40.881Z,14.40
2019-04-22T03:25:42.281Z,14.40
2019-04-22T03:33:09.259Z,14.20
2019-04-22T03:37:50.525Z,14.10
2019-04-22T03:40:30.788Z,14.10
2019-04-22T04:00:35.729Z,14.10
2019-04-22T04:03:00.925Z,14.20
2019-04-22T04:05:37.527Z,14.20
2019-04-22T04:08:03.890Z,14.20
2019-04-22T04:15:29.985Z,14.20
2019-04-22T04:18:06.488Z,14.20
2019-04-22T04:23:19.605Z,14.30
2019-04-22T04:25:46.746Z,14.30
2019-04-22T04:30:42.855Z,14.30
2019-04-22T04:36:02.372Z,14.30
2019-04-22T04:38:42.924Z,14.30
2019-04-22T04:40:55.671Z,14.30
2019-04-22T04:45:55.590Z,14.40
2019-04-22T04:48:32.897Z,14.30
2019-04-22T04:51:11.896Z,14.30
2019-04-22T04:56:03.232Z,14.30
2019-04-22T04:58:55.848Z,14.30
2019-04-22T05:01:03.428Z,14.30
2019-04-22T05:03:45.643Z,14.30
2019-04-22T05:06:10.719Z,14.40
2019-04-22T05:08:52.897Z,14.40
2019-04-22T05:11:05.626Z,14.40
2019-04-22T05:21:14.008Z,14.50
2019-04-22T05:26:18.235Z,14.60
2019-04-22T05:28:42.323Z,14.60
2019-04-22T05:31:16.136Z,14.60
2019-04-22T05:33:42.493Z,14.70
2019-04-22T05:36:14.411Z,14.70
2019-04-22T05:38:52.287Z,14.80
2019-04-22T05:41:15.941Z,14.80
2019-04-22T05:43:50.113Z,14.80
2019-04-22T05:46:20.511Z,14.90
2019-04-22T05:48:56.620Z,14.90
2019-04-22T05:51:25.921Z,14.90
2019-04-22T05:53:53.882Z,15.00
2019-04-22T05:56:33.880Z,15.00
2019-04-22T05:58:59.914Z,15.10
2019-04-22T06:01:38.509Z,15.20
2019-04-22T06:06:45.357Z,15.30
2019-04-22T06:09:03.943Z,15.30
2019-04-22T06:11:32.166Z,15.40
2019-04-22T06:14:00.900Z,15.50
2019-04-22T06:16:44.426Z,15.60
2019-04-22T06:19:13.752Z,15.70
2019-04-22T06:21:42.811Z,15.70
2019-04-22T06:24:27.425Z,15.70
2019-04-22T06:29:22.184Z,15.90
2019-04-22T06:32:11.710Z,15.90
2019-04-22T06:34:27.097Z,16.10
2019-04-22T06:37:01.259Z,16.10
2019-04-22T06:39:27.879Z,16.30
2019-04-22T06:41:58.940Z,16.30
2019-04-22T06:46:56.394Z,16.60
2019-04-22T06:49:33.294Z,16.70
2019-04-22T06:52:04.495Z,16.70
2019-04-22T06:54:32.934Z,16.80
2019-04-22T06:57:02.371Z,16.90
2019-04-22T06:59:34.447Z,17.00
2019-04-22T07:02:11.630Z,17.00
2019-04-22T07:04:33.672Z,17.10
2019-04-22T07:07:06.666Z,17.10
2019-04-22T07:09:41.143Z,17.20
2019-04-22T07:12:15.566Z,17.30
2019-04-22T07:14:42.054Z,17.40
2019-04-22T07:17:15.893Z,17.50
2019-04-22T07:19:45.288Z,17.60
2019-04-22T07:22:18.068Z,17.70
2019-04-22T07:29:56.158Z,17.90
2019-04-22T07:32:39.920Z,17.90
2019-04-22T07:37:31.576Z,18.10
2019-04-22T07:39:50.114Z,18.20
2019-04-22T07:42:32.667Z,18.30
2019-04-22T07:45:04.553Z,18.40
2019-04-22T07:47:34.148Z,18.60
2019-04-22T07:50:07.190Z,18.60
2019-04-22T07:52:33.416Z,18.80
2019-04-22T07:55:04.287Z,18.90
2019-04-22T08:00:09.043Z,19.20
2019-04-22T08:02:46.688Z,19.30
2019-04-22T08:05:24.774Z,19.40
2019-04-22T08:07:45.421Z,19.50
2019-04-22T08:12:47.346Z,19.70
2019-04-22T08:15:12.940Z,19.80
2019-04-22T08:18:00.252Z,19.90
2019-04-22T08:20:18.790Z,20.10
2019-04-22T08:22:50.783Z,20.10
2019-04-22T08:25:16.749Z,20.30
2019-04-22T08:27:51.860Z,20.40
2019-04-22T08:30:28.866Z,20.50
2019-04-22T08:32:53.196Z,20.70
2019-04-22T08:35:29.367Z,20.80
2019-04-22T08:38:02.411Z,20.80
2019-04-22T08:40:29.268Z,20.90
2019-04-22T08:43:05.524Z,21.00
2019-04-22T08:45:36.613Z,21.20
2019-04-22T08:47:57.795Z,21.30
2019-04-22T08:50:33.935Z,21.40
2019-04-22T08:53:12.490Z,21.50
2019-04-22T08:55:38.219Z,21.60
2019-04-22T09:00:46.116Z,21.90
2019-04-22T09:03:10.978Z,22.00
2019-04-22T09:06:01.539Z,22.20
2019-04-22T09:08:15.922Z,22.20
2019-04-22T09:10:44.678Z,22.40
2019-04-22T09:13:20.659Z,22.50
2019-04-22T09:16:02.260Z,22.60
2019-04-22T09:18:26.990Z,22.80
2019-04-22T09:21:04.758Z,22.90
2019-04-22T09:23:26.120Z,23.00
2019-04-22T09:25:53.231Z,23.10
2019-04-22T09:28:24.625Z,23.20
2019-04-22T09:31:01.922Z,23.20
2019-04-22T09:36:09.133Z,23.40
2019-04-22T09:41:06.485Z,23.70
2019-04-22T09:43:40.750Z,23.80
2019-04-22T09:46:10.234Z,23.80
2019-04-22T09:48:44.112Z,23.80
2019-04-22T09:51:05.611Z,23.90
2019-04-22T09:53:51.509Z,23.90
2019-04-22T09:56:10.147Z,24.00
2019-04-22T09:58:44.705Z,24.00
2019-04-22T10:01:22.831Z,24.10
2019-04-22T10:03:51.696Z,24.30
2019-04-22T10:09:08.457Z,24.50
2019-04-22T10:11:26.806Z,24.40
2019-04-22T10:14:01.112Z,24.30
2019-04-22T10:18:59.454Z,24.10
2019-04-22T10:21:35.285Z,24.00
2019-04-22T10:23:58.983Z,24.00
2019-04-22T10:26:33.489Z,24.00
2019-04-22T10:33:53.263Z,24.10
2019-04-22T10:36:28.337Z,24.30
2019-04-22T10:38:58.202Z,24.30
2019-04-22T10:41:28.465Z,24.50
2019-04-22T10:43:59.365Z,24.70
2019-04-22T10:46:30.424Z,24.80
2019-04-22T10:49:00.188Z,25.00
2019-04-22T10:51:30.736Z,25.20
2019-04-22T10:54:01.678Z,25.50
2019-04-22T10:56:32.699Z,25.60
2019-04-22T10:59:02.779Z,25.70
2019-04-22T11:01:33.851Z,25.80
2019-04-22T11:04:04.594Z,25.80
2019-04-22T11:06:42.946Z,25.90
2019-04-22T11:09:08.505Z,26.10
2019-04-22T11:11:46.698Z,26.30
2019-04-22T11:14:10.569Z,26.40
2019-04-22T11:16:41.615Z,26.70
2019-04-22T11:19:11.861Z,26.80
2019-04-22T11:21:41.436Z,27.10
2019-04-22T11:24:10.907Z,27.00
2019-04-22T11:26:41.033Z,27.10
2019-04-22T11:29:11.997Z,27.10
2019-04-22T11:31:42.299Z,27.40
2019-04-22T11:34:13.011Z,27.70
2019-04-22T11:36:43.092Z,27.90
2019-04-22T11:39:14.845Z,28.30
2019-04-22T11:41:46.436Z,28.50
2019-04-22T11:44:17.146Z,28.60
2019-04-22T11:46:47.720Z,28.90
2019-04-22T11:49:18.188Z,29.10
2019-04-22T11:52:22.561Z,29.10
2019-04-22T11:54:52.967Z,29.30
2019-04-22T11:57:23.323Z,29.50
2019-04-22T11:59:54.495Z,29.80
2019-04-22T12:02:27.224Z,30.00
2019-04-22T12:04:58.192Z,30.00
2019-04-22T12:07:31.054Z,29.90
2019-04-22T12:09:59.758Z,29.90
2019-04-22T12:12:29.992Z,30.10
2019-04-22T12:15:00.758Z,30.20
2019-04-22T12:17:32.010Z,30.40
2019-04-22T12:20:04.752Z,30.50
2019-04-22T12:22:33.977Z,30.50
2019-04-22T12:25:06.261Z,30.70
2019-04-22T12:27:36.919Z,30.80
2019-04-22T12:30:09.153Z,30.80
2019-04-22T12:32:39.610Z,30.90
2019-04-22T12:35:09.586Z,31.10
2019-04-22T12:37:45.733Z,31.20
2019-04-22T12:40:13.031Z,31.20
2019-04-22T12:42:42.910Z,31.20
2019-04-22T12:45:13.943Z,31.20
2019-04-22T12:47:44.155Z,31.50
2019-04-22T12:50:22.439Z,31.70
2019-04-22T12:52:53.312Z,31.80
2019-04-22T12:55:19.691Z,31.80
2019-04-22T12:57:53.197Z,31.80
2019-04-22T13:00:20.872Z,32.00
2019-04-22T13:02:51.401Z,32.20
2019-04-22T13:05:22.740Z,32.00
2019-04-22T13:07:53.684Z,32.00
2019-04-22T13:10:24.170Z,31.70
2019-04-22T13:12:55.085Z,31.50
2019-04-22T13:15:26.427Z,31.50
2019-04-22T13:18:05.742Z,31.60
2019-04-22T13:20:28.239Z,31.70
2019-04-22T13:22:58.842Z,31.90
2019-04-22T13:25:30.314Z,32.30
2019-04-22T13:28:01.009Z,32.40
2019-04-22T13:30:32.649Z,32.50
2019-04-22T13:33:02.929Z,32.50
2019-04-22T13:35:33.889Z,32.20
2019-04-22T13:38:04.796Z,32.30
2019-04-22T13:40:34.921Z,32.30
2019-04-22T13:43:04.938Z,32.40
2019-04-22T13:45:36.084Z,32.50
2019-04-22T13:48:24.543Z,32.60
2019-04-22T13:51:08.086Z,32.80
2019-04-22T13:53:45.742Z,32.70
2019-04-22T13:56:05.528Z,32.70
2019-04-22T13:58:24.350Z,32.60
2019-04-22T14:00:42.572Z,32.50
2019-04-22T14:03:46.898Z,32.30
2019-04-22T14:06:16.603Z,32.30
2019-04-22T14:08:47.186Z,32.20
2019-04-22T14:11:27.722Z,32.50
2019-04-22T14:13:48.033Z,32.50
2019-04-22T14:16:19.213Z,32.50
2019-04-22T14:18:49.758Z,32.50
2019-04-22T14:21:21.054Z,32.30
2019-04-22T14:23:50.984Z,32.10
2019-04-22T14:26:20.736Z,31.90
2019-04-22T14:28:50.800Z,31.90
2019-04-22T14:31:20.410Z,31.80
2019-04-22T14:33:54.828Z,31.70
2019-04-22T14:36:21.748Z,31.60
2019-04-22T14:38:52.322Z,31.50
2019-04-22T14:41:40.631Z,31.40
2019-04-22T14:45:07.158Z,31.40
2019-04-22T14:46:56.719Z,31.40
2019-04-22T14:49:17.831Z,31.50
2019-04-22T14:51:49.826Z,31.60
2019-04-22T14:54:15.446Z,31.60
2019-04-22T14:56:30.448Z,31.50
2019-04-22T14:59:00.808Z,30.90
2019-04-22T15:01:30.812Z,30.80
2019-04-22T15:04:00.806Z,30.60
2019-04-22T15:06:31.762Z,30.50
2019-04-22T15:09:01.892Z,30.40
2019-04-22T15:11:43.881Z,30.20
2019-04-22T15:14:03.242Z,30.20
2019-04-22T15:16:40.917Z,30.10
2019-04-22T15:19:32.008Z,30.30
2019-04-22T15:22:02.989Z,30.30
2019-04-22T15:24:32.556Z,30.30
2019-04-22T15:27:02.614Z,30.20
2019-04-22T15:29:33.620Z,30.10
2019-04-22T15:32:03.541Z,30.10
2019-04-22T15:34:34.620Z,29.90
2019-04-22T15:37:04.384Z,29.80
2019-04-22T15:39:34.038Z,29.60
2019-04-22T15:42:11.546Z,29.40
2019-04-22T15:44:35.785Z,29.10
2019-04-22T15:47:06.874Z,29.10
2019-04-22T15:49:38.143Z,28.90
2019-04-22T15:52:08.061Z,28.70
2019-04-22T15:54:39.341Z,28.60
2019-04-22T15:57:10.815Z,28.40
2019-04-22T15:59:57.799Z,28.10
2019-04-22T16:02:13.884Z,27.60
2019-04-22T16:04:44.529Z,27.30
2019-04-22T16:07:14.827Z,27.10
2019-04-22T16:09:45.725Z,26.90
2019-04-22T16:12:22.453Z,26.80
2019-04-22T16:14:52.649Z,26.60
2019-04-22T16:17:18.794Z,26.40
2019-04-22T16:19:49.071Z,26.30
2019-04-22T16:22:21.141Z,26.20
2019-04-22T16:25:11.413Z,26.10
2019-04-22T16:27:42.805Z,26.00
2019-04-22T16:30:23.547Z,25.80
2019-04-22T16:33:03.359Z,25.70
2019-04-22T16:35:33.085Z,25.60
2019-04-22T16:38:02.714Z,25.50
2019-04-22T16:40:32.640Z,25.40
2019-04-22T16:43:04.797Z,25.20
2019-04-22T16:45:34.060Z,25.10
2019-04-22T16:48:04.161Z,24.90
2019-04-22T16:50:35.659Z,24.70
2019-04-22T16:53:06.086Z,24.50
2019-04-22T16:55:36.822Z,24.40
2019-04-22T16:58:07.451Z,24.30
2019-04-22T17:00:38.493Z,24.20
2019-04-22T17:03:46.748Z,24.20
2019-04-22T17:06:19.465Z,24.10
2019-04-22T17:08:50.713Z,24.00
2019-04-22T17:11:22.037Z,23.90
2019-04-22T17:13:53.054Z,23.80
2019-04-22T17:16:24.373Z,23.70
2019-04-22T17:18:54.268Z,23.60
2019-04-22T17:21:25.677Z,23.40
2019-04-22T17:23:55.955Z,23.40
2019-04-22T17:26:26.483Z,23.30
2019-04-22T17:28:57.648Z,23.10
2019-04-22T17:31:27.294Z,23.00
2019-04-22T17:33:57.266Z,22.90
2019-04-22T17:36:27.121Z,22.80
2019-04-22T17:39:13.516Z,22.70
2019-04-22T17:41:53.995Z,22.60
2019-04-22T17:44:40.054Z,22.50
2019-04-22T17:47:23.589Z,22.40
2019-04-22T17:50:07.284Z,22.20
2019-04-22T17:52:32.869Z,22.10
2019-04-22T17:54:59.021Z,22.00
2019-04-22T17:57:47.804Z,21.90
2019-04-22T18:00:06.883Z,21.80
2019-04-22T18:02:32.251Z,21.70
2019-04-22T18:04:56.189Z,21.60
2019-04-22T18:07:39.184Z,21.50
2019-04-22T18:10:27.174Z,21.40
2019-04-22T18:12:53.161Z,21.30
2019-04-22T18:15:16.335Z,21.30
2019-04-22T18:17:49.506Z,21.20
2019-04-22T18:20:14.374Z,21.10
2019-04-22T18:22:39.599Z,21.00
2019-04-22T18:25:12.978Z,20.90
2019-04-22T18:27:55.093Z,20.70
2019-04-22T18:30:17.882Z,20.70
2019-04-22T18:32:53.619Z,20.70
2019-04-22T18:35:20.971Z,20.50
2019-04-22T18:38:07.664Z,20.40
2019-04-22T18:40:30.560Z,20.40
2019-04-22T18:43:06.623Z,20.30
2019-04-22T18:47:54.028Z,20.10
2019-04-22T18:50:45.265Z,19.90
2019-04-22T18:53:48.348Z,19.90
2019-04-22T18:56:13.853Z,19.80
2019-04-22T18:58:34.419Z,19.60
2019-04-22T19:00:53.269Z,19.50
2019-04-22T19:03:29.516Z,19.40
2019-04-22T19:06:24.792Z,19.30
2019-04-22T19:08:53.652Z,19.20
2019-04-22T19:11:16.625Z,19.10
2019-04-22T19:14:05.975Z,19.00
2019-04-22T19:16:30.988Z,19.00
2019-04-22T19:19:17.255Z,18.90
2019-04-22T19:21:45.281Z,18.80
2019-04-22T19:23:54.433Z,18.80
2019-04-22T19:26:35.823Z,18.70
2019-04-22T19:29:03.812Z,18.70
2019-04-22T19:31:28.537Z,18.70
2019-04-22T19:34:03.298Z,18.60
2019-04-22T19:36:35.596Z,18.50
2019-04-22T19:38:59.268Z,18.50
2019-04-22T19:41:36.270Z,18.40
2019-04-22T19:44:10.491Z,18.40
2019-04-22T19:46:34.538Z,18.30
2019-04-22T19:49:21.968Z,18.30
2019-04-22T19:54:15.692Z,18.20
2019-04-22T19:56:36.715Z,18.10
2019-04-22T19:59:12.281Z,18.10
2019-04-22T20:02:00.987Z,18.00
2019-04-22T20:05:02.858Z,18.00
2019-04-22T20:07:38.119Z,17.90
2019-04-22T20:10:17.239Z,17.80
2019-04-22T20:12:42.465Z,17.70
2019-04-22T20:15:14.246Z,17.70
2019-04-22T20:18:07.291Z,17.70
2019-04-22T20:20:22.794Z,17.60
2019-04-22T20:22:44.028Z,17.60
2019-04-22T20:25:07.517Z,17.50
2019-04-22T20:27:54.761Z,17.40
2019-04-22T20:30:23.487Z,17.40
2019-04-22T20:32:51.147Z,17.40
2019-04-22T20:35:28.067Z,17.30
2019-04-22T20:37:56.778Z,17.30
2019-04-22T20:40:31.234Z,17.30
2019-04-22T20:43:26.813Z,17.20
2019-04-22T20:45:36.252Z,17.10
2019-04-22T20:47:56.661Z,17.10
2019-04-22T20:50:34.683Z,17.10
2019-04-22T20:53:11.880Z,17.00
2019-04-22T20:55:36.543Z,17.00
2019-04-22T20:58:11.739Z,16.90
2019-04-22T21:00:31.207Z,16.90
2019-04-22T21:02:59.856Z,16.80
2019-04-22T21:05:33.950Z,16.70
2019-04-22T21:08:13.466Z,16.70
2019-04-22T21:10:42.753Z,16.60
2019-04-22T21:13:12.057Z,16.60
2019-04-22T21:15:53.153Z,16.50
2019-04-22T21:18:13.587Z,16.50
2019-04-22T21:20:49.512Z,16.40
2019-04-22T21:23:23.128Z,16.40
2019-04-22T21:25:57.250Z,16.30
2019-04-22T21:28:25.900Z,16.30
2019-04-22T21:30:59.687Z,16.30
2019-04-22T21:33:19.524Z,16.30
2019-04-22T21:36:11.788Z,16.20
2019-04-22T21:38:35.899Z,16.20
2019-04-22T21:41:08.403Z,16.00
2019-04-22T21:43:38.582Z,16.10
2019-04-22T21:46:09.112Z,16.00
2019-04-22T21:48:44.353Z,15.90
2019-04-22T21:51:10.848Z,15.80
2019-04-22T21:53:50.402Z,15.80
2019-04-22T21:56:31.255Z,15.80
2019-04-22T21:58:51.141Z,15.80
2019-04-22T22:01:44.689Z,15.70
2019-04-22T22:04:09.700Z,15.70
2019-04-22T22:06:25.870Z,15.70
2019-04-22T22:09:13.426Z,15.60
2019-04-22T22:11:35.729Z,15.60
2019-04-22T22:14:07.679Z,15.50
2019-04-22T22:16:34.937Z,15.50
2019-04-22T22:19:10.984Z,15.50
2019-04-22T22:24:18.052Z,15.30
2019-04-22T22:26:46.523Z,15.30
2019-04-22T22:29:31.844Z,15.20
2019-04-22T22:31:56.415Z,15.10
2019-04-22T22:34:19.471Z,15.10
2019-04-22T22:36:45.097Z,15.10
2019-04-22T22:39:14.704Z,15.00
2019-04-22T22:41:31.997Z,15.00
2019-04-22T22:44:10.286Z,15.00
2019-04-22T22:46:43.751Z,15.00
2019-04-22T22:49:28.463Z,14.90
2019-04-22T22:52:09.991Z,14.90
2019-04-22T22:54:30.166Z,14.90
2019-04-22T22:57:00.382Z,14.80
2019-04-22T22:59:37.206Z,14.80
2019-04-22T23:02:00.172Z,14.80
2019-04-22T23:04:34.198Z,14.80
2019-04-22T23:07:15.116Z,14.70
2019-04-22T23:09:36.685Z,14.60
2019-04-22T23:12:12.184Z,14.60
2019-04-22T23:14:36.994Z,14.60
2019-04-22T23:16:57.306Z,14.60
2019-04-22T23:19:19.967Z,14.60
2019-04-22T23:21:54.385Z,14.60
2019-04-22T23:25:21.440Z,14.50
2019-04-22T23:27:50.307Z,14.50
2019-04-22T23:30:25.458Z,14.50
2019-04-22T23:33:07.508Z,14.50
2019-04-22T23:35:41.112Z,14.40
2019-04-22T23:38:10.790Z,14.50
2019-04-22T23:40:47.870Z,14.50
2019-04-22T23:45:53.309Z,14.40
2019-04-22T23:48:20.611Z,14.40
2019-04-22T23:50:57.429Z,14.30
2019-04-22T23:54:13.068Z,14.30
2019-04-22T23:56:06.228Z,14.20
